Alire, New Mexico
Current Conditions -  °F | °C
As of 11:15 PM on Monday 20 Oct 2014 (Local Time) from KLAM Reporting Station
Scattered Clouds Scattered Clouds  
Wind Chill: 51°   Ceiling: Unl
Heat Index: 51°   Visibility: 10mi
Dew Point: 41°   Wind: 6mph
Humidity: 68%   Direction: 210°SSW
Pressure: 30.27"   Gusts: NA
Location:  36.4765°N, 106.58°W
Report Text: KLAM 210515Z AUTO 21005KT 10SM SCT100 11/05 A3027 RMK AO2 T01080051
Loading
Personal Weather Stations






























Interactive Weather Map
Tropical Storm Tracking
New forecast layout! Learn more

10-Day Weather Forecast

Advertisements
Track Severe Weather on mobile